IRA185 OIIE-ORBI
Flight info
| Callsign | IRA185 |
|---|---|
| Flight time | 1h 6m |
| Altitude | 40000 |
| Route | DAXIL B411 ILM G202 SINKA |
| Aircraft | A333/H-SDE3GHIJ2J3J5M1RVWXY/LB2D1 |
Departure
| Time | 2026-05-06 09:35 |
|---|---|
| Airport | Imam Khomeini International Airport (OIIE) |
Arrival
| Time | 2026-05-06 10:41 |
|---|---|
| Airport | Baghdad International Airport / New Al Muthana Air Base (ORBI) |
| Time | Latitude | Longitude | Altitude | Speed | Heading |
|---|---|---|---|---|---|
| 2026-05-06 09:22 | 35.41135 | 51.15089 | 3264 ft | 0 kts | 198° |
| 2026-05-06 09:24 | 35.41145 | 51.15093 | 3264 ft | 4 kts | 199° |
| 2026-05-06 09:25 | 35.41170 | 51.15104 | 3264 ft | 4 kts | 195° |
| 2026-05-06 09:25 | 35.41197 | 51.15111 | 3264 ft | 4 kts | 186° |
| 2026-05-06 09:25 | 35.41224 | 51.15112 | 3264 ft | 3 kts | 180° |
| 2026-05-06 09:25 | 35.41228 | 51.15112 | 3264 ft | 1 kts | 181° |
| 2026-05-06 09:28 | 35.41227 | 51.15113 | 3264 ft | 1 kts | 179° |
| 2026-05-06 09:28 | 35.41221 | 51.15122 | 3264 ft | 2 kts | 129° |
| 2026-05-06 09:28 | 35.41208 | 51.15158 | 3263 ft | 7 kts | 107° |
| 2026-05-06 09:29 | 35.41187 | 51.15250 | 3263 ft | 15 kts | 105° |
| 2026-05-06 09:29 | 35.41147 | 51.15397 | 3261 ft | 20 kts | 110° |
| 2026-05-06 09:29 | 35.41100 | 51.15563 | 3259 ft | 21 kts | 109° |
| 2026-05-06 09:29 | 35.41049 | 51.15743 | 3258 ft | 23 kts | 109° |
| 2026-05-06 09:30 | 35.40998 | 51.15923 | 3256 ft | 20 kts | 109° |
| 2026-05-06 09:30 | 35.41001 | 51.16070 | 3254 ft | 17 kts | 39° |
| 2026-05-06 09:30 | 35.41100 | 51.16139 | 3254 ft | 15 kts | 41° |
| 2026-05-06 09:30 | 35.41118 | 51.16232 | 3254 ft | 7 kts | 103° |
| 2026-05-06 09:31 | 35.41100 | 51.16299 | 3253 ft | 9 kts | 108° |
| 2026-05-06 09:31 | 35.41078 | 51.16389 | 3251 ft | 12 kts | 104° |
| 2026-05-06 09:31 | 35.41102 | 51.16480 | 3251 ft | 12 kts | 42° |
| 2026-05-06 09:31 | 35.41175 | 51.16523 | 3250 ft | 12 kts | 21° |
| 2026-05-06 09:32 | 35.41260 | 51.16558 | 3250 ft | 13 kts | 9° |
| 2026-05-06 09:32 | 35.41327 | 51.16514 | 3251 ft | 10 kts | 304° |
| 2026-05-06 09:32 | 35.41352 | 51.16448 | 3252 ft | 0 kts | 289° |
| 2026-05-06 09:34 | 35.41360 | 51.16419 | 3252 ft | 18 kts | 289° |
| 2026-05-06 09:34 | 35.41487 | 51.15958 | 3258 ft | 96 kts | 289° |
| 2026-05-06 09:35 | 35.41781 | 51.14901 | 3331 ft | 160 kts | 288° |
| 2026-05-06 09:35 | 35.42122 | 51.13553 | 4217 ft | 168 kts | 281° |
| 2026-05-06 09:35 | 35.42375 | 51.12040 | 4877 ft | 196 kts | 279° |
| 2026-05-06 09:35 | 35.42522 | 51.10222 | 5154 ft | 233 kts | 265° |
| 2026-05-06 09:36 | 35.42006 | 51.08218 | 5538 ft | 260 kts | 244° |
| 2026-05-06 09:36 | 35.41234 | 51.06158 | 6220 ft | 271 kts | 245° |
| 2026-05-06 09:36 | 35.40423 | 51.04046 | 7057 ft | 276 kts | 244° |
| 2026-05-06 09:36 | 35.39592 | 51.01891 | 7922 ft | 281 kts | 244° |
| 2026-05-06 09:37 | 35.38759 | 50.99702 | 8782 ft | 285 kts | 245° |
| 2026-05-06 09:37 | 35.37936 | 50.97505 | 9613 ft | 290 kts | 245° |
| 2026-05-06 09:37 | 35.37097 | 50.95236 | 10390 ft | 297 kts | 245° |
| 2026-05-06 09:37 | 35.36218 | 50.92840 | 10756 ft | 318 kts | 245° |
| 2026-05-06 09:38 | 35.35286 | 50.90292 | 11092 ft | 337 kts | 245° |
| 2026-05-06 09:38 | 35.34314 | 50.87635 | 11655 ft | 346 kts | 245° |
| 2026-05-06 09:38 | 35.33321 | 50.84920 | 12330 ft | 351 kts | 245° |
| 2026-05-06 09:38 | 35.32329 | 50.82210 | 12993 ft | 355 kts | 245° |
| 2026-05-06 09:39 | 35.31307 | 50.79423 | 13644 ft | 359 kts | 245° |
| 2026-05-06 09:39 | 35.30278 | 50.76618 | 14271 ft | 363 kts | 245° |
| 2026-05-06 09:39 | 35.29235 | 50.73781 | 14874 ft | 367 kts | 245° |
| 2026-05-06 09:39 | 35.28181 | 50.70916 | 15455 ft | 371 kts | 245° |
| 2026-05-06 09:40 | 35.27113 | 50.68016 | 16021 ft | 375 kts | 245° |
| 2026-05-06 09:40 | 35.26034 | 50.65088 | 16564 ft | 379 kts | 245° |
| 2026-05-06 09:40 | 35.23845 | 50.59158 | 17580 ft | 386 kts | 245° |
| 2026-05-06 09:41 | 35.22733 | 50.56149 | 18055 ft | 389 kts | 245° |
| 2026-05-06 09:41 | 35.21613 | 50.53124 | 18511 ft | 393 kts | 245° |
| 2026-05-06 09:41 | 35.20478 | 50.50059 | 18946 ft | 396 kts | 245° |
| 2026-05-06 09:41 | 35.19333 | 50.46971 | 19363 ft | 399 kts | 245° |
| 2026-05-06 09:42 | 35.18198 | 50.43911 | 19755 ft | 402 kts | 245° |
| 2026-05-06 09:42 | 35.17037 | 50.40784 | 20135 ft | 405 kts | 245° |
| 2026-05-06 09:42 | 35.15864 | 50.37629 | 20501 ft | 408 kts | 245° |
| 2026-05-06 09:42 | 35.14687 | 50.34465 | 20848 ft | 410 kts | 245° |
| 2026-05-06 09:43 | 35.13501 | 50.31282 | 21183 ft | 413 kts | 245° |
| 2026-05-06 09:43 | 35.12306 | 50.28078 | 21504 ft | 415 kts | 245° |
| 2026-05-06 09:43 | 35.11104 | 50.24858 | 21812 ft | 418 kts | 245° |
| 2026-05-06 09:43 | 35.09897 | 50.21625 | 22108 ft | 420 kts | 245° |
| 2026-05-06 09:44 | 35.08676 | 50.18363 | 22393 ft | 422 kts | 245° |
| 2026-05-06 09:44 | 35.07452 | 50.15094 | 22664 ft | 425 kts | 245° |
| 2026-05-06 09:44 | 35.06221 | 50.11808 | 22927 ft | 427 kts | 245° |
| 2026-05-06 09:44 | 35.04984 | 50.08509 | 23179 ft | 429 kts | 245° |
| 2026-05-06 09:45 | 35.03749 | 50.05219 | 23420 ft | 431 kts | 245° |
| 2026-05-06 09:45 | 35.02499 | 50.01893 | 23653 ft | 433 kts | 245° |
| 2026-05-06 09:45 | 35.01239 | 49.98545 | 23877 ft | 434 kts | 245° |
| 2026-05-06 09:45 | 34.99974 | 49.95187 | 24090 ft | 436 kts | 245° |
| 2026-05-06 09:46 | 34.98703 | 49.91816 | 24296 ft | 438 kts | 245° |
| 2026-05-06 09:46 | 34.97430 | 49.88442 | 24497 ft | 439 kts | 245° |
| 2026-05-06 09:46 | 34.96150 | 49.85055 | 24693 ft | 441 kts | 245° |
| 2026-05-06 09:46 | 34.94859 | 49.81642 | 24880 ft | 443 kts | 245° |
| 2026-05-06 09:47 | 34.93564 | 49.78224 | 25059 ft | 444 kts | 245° |
| 2026-05-06 09:47 | 34.92266 | 49.74799 | 25232 ft | 446 kts | 245° |
| 2026-05-06 09:47 | 34.90981 | 49.71412 | 25394 ft | 447 kts | 245° |
| 2026-05-06 09:47 | 34.89671 | 49.67965 | 25553 ft | 448 kts | 245° |
| 2026-05-06 09:48 | 34.88359 | 49.64513 | 25706 ft | 450 kts | 245° |
| 2026-05-06 09:48 | 34.87041 | 49.61051 | 25855 ft | 451 kts | 245° |
| 2026-05-06 09:48 | 34.85819 | 49.57527 | 25992 ft | 452 kts | 249° |
| 2026-05-06 09:48 | 34.84792 | 49.53909 | 26135 ft | 453 kts | 251° |
| 2026-05-06 09:49 | 34.83843 | 49.50227 | 26270 ft | 455 kts | 253° |
| 2026-05-06 09:49 | 34.82935 | 49.46533 | 26400 ft | 456 kts | 253° |
| 2026-05-06 09:49 | 34.82037 | 49.42830 | 26525 ft | 457 kts | 253° |
| 2026-05-06 09:49 | 34.81130 | 49.39110 | 26646 ft | 458 kts | 253° |
| 2026-05-06 09:50 | 34.80224 | 49.35434 | 26763 ft | 459 kts | 253° |
| 2026-05-06 09:50 | 34.79297 | 49.31716 | 26882 ft | 460 kts | 252° |
| 2026-05-06 09:50 | 34.78363 | 49.27998 | 26998 ft | 461 kts | 252° |
| 2026-05-06 09:50 | 34.77418 | 49.24260 | 27109 ft | 462 kts | 252° |
| 2026-05-06 09:51 | 34.76469 | 49.20519 | 27217 ft | 463 kts | 252° |
| 2026-05-06 09:51 | 34.75516 | 49.16773 | 27322 ft | 464 kts | 252° |
| 2026-05-06 09:51 | 34.74561 | 49.13019 | 27424 ft | 465 kts | 252° |
| 2026-05-06 09:51 | 34.73602 | 49.09254 | 27521 ft | 465 kts | 252° |
| 2026-05-06 09:52 | 34.72643 | 49.05491 | 27618 ft | 466 kts | 252° |
| 2026-05-06 09:52 | 34.71680 | 49.01721 | 27713 ft | 467 kts | 252° |
| 2026-05-06 09:52 | 34.70716 | 48.97949 | 27805 ft | 468 kts | 252° |
| 2026-05-06 09:52 | 34.69748 | 48.94167 | 27891 ft | 469 kts | 252° |
| 2026-05-06 09:53 | 34.68789 | 48.90428 | 27937 ft | 470 kts | 252° |
| 2026-05-06 09:53 | 34.67812 | 48.86625 | 27971 ft | 472 kts | 252° |
| 2026-05-06 09:53 | 34.65844 | 48.78974 | 28035 ft | 476 kts | 252° |
| 2026-05-06 09:54 | 34.63857 | 48.71277 | 28090 ft | 479 kts | 252° |
| 2026-05-06 09:54 | 34.61852 | 48.63531 | 28145 ft | 482 kts | 252° |
| 2026-05-06 09:55 | 34.59832 | 48.55749 | 28192 ft | 484 kts | 252° |
| 2026-05-06 09:55 | 34.57484 | 48.48078 | 28247 ft | 486 kts | 245° |
| 2026-05-06 09:56 | 34.54546 | 48.40722 | 28293 ft | 488 kts | 243° |
| 2026-05-06 09:56 | 34.51453 | 48.33360 | 28328 ft | 490 kts | 243° |
| 2026-05-06 09:57 | 34.48328 | 48.25976 | 28294 ft | 493 kts | 243° |
| 2026-05-06 09:57 | 34.45202 | 48.18565 | 28343 ft | 494 kts | 243° |
| 2026-05-06 09:58 | 34.42068 | 48.11127 | 28402 ft | 495 kts | 243° |
| 2026-05-06 09:58 | 34.38958 | 48.03754 | 28455 ft | 495 kts | 243° |
| 2026-05-06 09:59 | 34.35819 | 47.96332 | 28612 ft | 493 kts | 243° |
| 2026-05-06 09:59 | 34.34263 | 47.92660 | 28939 ft | 487 kts | 243° |
| 2026-05-06 09:59 | 34.32725 | 47.89034 | 29273 ft | 481 kts | 242° |
| 2026-05-06 10:00 | 34.31208 | 47.85461 | 29607 ft | 474 kts | 242° |
| 2026-05-06 10:00 | 34.29709 | 47.81936 | 29940 ft | 468 kts | 242° |
| 2026-05-06 10:00 | 34.28223 | 47.78444 | 30275 ft | 463 kts | 242° |
| 2026-05-06 10:00 | 34.26758 | 47.75004 | 30605 ft | 457 kts | 242° |
| 2026-05-06 10:01 | 34.25310 | 47.71609 | 30935 ft | 452 kts | 242° |
| 2026-05-06 10:01 | 34.23895 | 47.68294 | 31258 ft | 446 kts | 242° |
| 2026-05-06 10:01 | 34.22462 | 47.64938 | 31588 ft | 441 kts | 242° |
| 2026-05-06 10:01 | 34.21534 | 47.62766 | 31805 ft | 438 kts | 242° |
| 2026-05-06 10:02 | 34.19697 | 47.58471 | 32237 ft | 431 kts | 242° |
| 2026-05-06 10:02 | 34.18328 | 47.55273 | 32564 ft | 426 kts | 242° |
| 2026-05-06 10:02 | 34.16973 | 47.52112 | 32890 ft | 421 kts | 242° |
| 2026-05-06 10:02 | 34.15631 | 47.48983 | 33216 ft | 417 kts | 242° |
| 2026-05-06 10:03 | 34.14306 | 47.45897 | 33549 ft | 411 kts | 242° |
| 2026-05-06 10:03 | 34.13438 | 47.43874 | 33903 ft | 406 kts | 242° |
| 2026-05-06 10:03 | 34.11740 | 47.39923 | 35102 ft | 383 kts | 242° |
| 2026-05-06 10:03 | 34.10947 | 47.38079 | 35929 ft | 363 kts | 242° |
| 2026-05-06 10:04 | 34.09830 | 47.35480 | 37117 ft | 335 kts | 242° |
| 2026-05-06 10:04 | 34.08788 | 47.33057 | 37922 ft | 316 kts | 242° |
| 2026-05-06 10:04 | 34.07790 | 47.30736 | 38351 ft | 307 kts | 242° |
| 2026-05-06 10:04 | 34.06809 | 47.28458 | 38475 ft | 306 kts | 242° |
| 2026-05-06 10:05 | 34.04813 | 47.23867 | 38144 ft | 324 kts | 240° |
| 2026-05-06 10:05 | 34.03689 | 47.21329 | 37235 ft | 360 kts | 242° |
| 2026-05-06 10:05 | 34.02457 | 47.18539 | 36430 ft | 392 kts | 242° |
| 2026-05-06 10:06 | 34.01143 | 47.15529 | 35840 ft | 417 kts | 242° |
| 2026-05-06 10:06 | 33.99788 | 47.12376 | 35623 ft | 431 kts | 242° |
| 2026-05-06 10:06 | 33.96691 | 47.06083 | 35809 ft | 441 kts | 236° |
| 2026-05-06 10:07 | 33.94942 | 47.03032 | 35930 ft | 445 kts | 234° |
| 2026-05-06 10:07 | 33.93141 | 46.99981 | 36052 ft | 449 kts | 234° |
| 2026-05-06 10:07 | 33.91305 | 46.96920 | 36173 ft | 453 kts | 234° |
| 2026-05-06 10:07 | 33.89444 | 46.93837 | 36295 ft | 456 kts | 233° |
| 2026-05-06 10:08 | 33.87591 | 46.90772 | 36468 ft | 458 kts | 233° |
| 2026-05-06 10:08 | 33.85716 | 46.87667 | 36665 ft | 460 kts | 233° |
| 2026-05-06 10:08 | 33.83833 | 46.84547 | 36862 ft | 462 kts | 234° |
| 2026-05-06 10:08 | 33.81941 | 46.81408 | 37061 ft | 463 kts | 234° |
| 2026-05-06 10:09 | 33.80050 | 46.78270 | 37259 ft | 464 kts | 234° |
| 2026-05-06 10:09 | 33.78152 | 46.75119 | 37457 ft | 465 kts | 234° |
| 2026-05-06 10:09 | 33.76250 | 46.71966 | 37656 ft | 466 kts | 234° |
| 2026-05-06 10:09 | 33.74346 | 46.68811 | 37854 ft | 467 kts | 234° |
| 2026-05-06 10:10 | 33.72435 | 46.65649 | 38051 ft | 468 kts | 233° |
| 2026-05-06 10:10 | 33.70522 | 46.62485 | 38258 ft | 468 kts | 233° |
| 2026-05-06 10:10 | 33.68607 | 46.59322 | 38572 ft | 466 kts | 233° |
| 2026-05-06 10:10 | 33.66708 | 46.56187 | 38895 ft | 463 kts | 233° |
| 2026-05-06 10:11 | 33.64821 | 46.53074 | 39218 ft | 457 kts | 233° |
| 2026-05-06 10:11 | 33.62990 | 46.50056 | 39541 ft | 449 kts | 233° |
| 2026-05-06 10:11 | 33.61167 | 46.47055 | 39862 ft | 440 kts | 233° |
| 2026-05-06 10:11 | 33.59439 | 46.44042 | 39993 ft | 437 kts | 240° |
| 2026-05-06 10:12 | 33.57339 | 46.37245 | 40003 ft | 436 kts | 257° |
| 2026-05-06 10:12 | 33.56290 | 46.30074 | 40000 ft | 436 kts | 261° |
| 2026-05-06 10:13 | 33.55443 | 46.22869 | 40000 ft | 436 kts | 262° |
| 2026-05-06 10:13 | 33.54592 | 46.15668 | 40000 ft | 436 kts | 261° |
| 2026-05-06 10:14 | 33.53710 | 46.08519 | 40000 ft | 436 kts | 261° |
| 2026-05-06 10:14 | 33.52803 | 46.01337 | 40000 ft | 436 kts | 261° |
| 2026-05-06 10:15 | 33.51890 | 45.94163 | 40000 ft | 435 kts | 261° |
| 2026-05-06 10:15 | 33.51421 | 45.90495 | 40000 ft | 435 kts | 261° |
| 2026-05-06 10:16 | 33.50538 | 45.83820 | 39764 ft | 441 kts | 260° |
| 2026-05-06 10:16 | 33.50040 | 45.80149 | 39278 ft | 453 kts | 260° |
| 2026-05-06 10:16 | 33.49522 | 45.76367 | 38756 ft | 466 kts | 260° |
| 2026-05-06 10:17 | 33.48991 | 45.72492 | 38220 ft | 478 kts | 260° |
| 2026-05-06 10:17 | 33.48446 | 45.68519 | 37667 ft | 490 kts | 260° |
| 2026-05-06 10:17 | 33.47885 | 45.64438 | 37092 ft | 502 kts | 260° |
| 2026-05-06 10:17 | 33.47312 | 45.60266 | 36489 ft | 513 kts | 260° |
| 2026-05-06 10:18 | 33.46727 | 45.56015 | 35681 ft | 518 kts | 260° |
| 2026-05-06 10:18 | 33.46147 | 45.51807 | 34559 ft | 521 kts | 260° |
| 2026-05-06 10:18 | 33.45553 | 45.47501 | 33378 ft | 525 kts | 260° |
| 2026-05-06 10:18 | 33.44955 | 45.43179 | 32219 ft | 527 kts | 260° |
| 2026-05-06 10:19 | 33.44353 | 45.38838 | 31106 ft | 527 kts | 260° |
| 2026-05-06 10:19 | 33.43755 | 45.34535 | 30366 ft | 520 kts | 260° |
| 2026-05-06 10:19 | 33.43164 | 45.30294 | 29577 ft | 514 kts | 260° |
| 2026-05-06 10:19 | 33.42579 | 45.26105 | 28900 ft | 507 kts | 260° |
| 2026-05-06 10:20 | 33.41992 | 45.21920 | 28574 ft | 510 kts | 260° |
| 2026-05-06 10:20 | 33.41405 | 45.17736 | 28535 ft | 510 kts | 260° |
| 2026-05-06 10:20 | 33.40231 | 45.09414 | 28523 ft | 510 kts | 260° |
| 2026-05-06 10:21 | 33.39044 | 45.01043 | 28515 ft | 509 kts | 260° |
| 2026-05-06 10:21 | 33.37853 | 44.92692 | 28542 ft | 508 kts | 260° |
| 2026-05-06 10:22 | 33.36657 | 44.84339 | 28006 ft | 507 kts | 260° |
| 2026-05-06 10:22 | 33.35882 | 44.80256 | 27172 ft | 502 kts | 250° |
| 2026-05-06 10:22 | 33.34319 | 44.76518 | 25950 ft | 504 kts | 236° |
| 2026-05-06 10:23 | 33.32127 | 44.73203 | 24426 ft | 512 kts | 229° |
| 2026-05-06 10:23 | 33.29773 | 44.69976 | 23152 ft | 515 kts | 229° |
| 2026-05-06 10:23 | 33.27485 | 44.66820 | 23114 ft | 491 kts | 229° |
| 2026-05-06 10:23 | 33.25318 | 44.63835 | 23226 ft | 475 kts | 229° |
| 2026-05-06 10:24 | 33.23155 | 44.60870 | 23505 ft | 471 kts | 229° |
| 2026-05-06 10:24 | 33.21001 | 44.57932 | 23832 ft | 468 kts | 229° |
| 2026-05-06 10:24 | 33.18854 | 44.55020 | 24198 ft | 463 kts | 228° |
| 2026-05-06 10:24 | 33.16733 | 44.52159 | 24603 ft | 458 kts | 228° |
| 2026-05-06 10:25 | 33.14627 | 44.49335 | 25054 ft | 451 kts | 228° |
| 2026-05-06 10:25 | 33.12564 | 44.46585 | 25546 ft | 444 kts | 228° |
| 2026-05-06 10:25 | 33.10518 | 44.43854 | 25989 ft | 438 kts | 237° |
| 2026-05-06 10:25 | 33.08525 | 44.40940 | 23877 ft | 479 kts | 232° |
| 2026-05-06 10:26 | 33.06436 | 44.37639 | 23619 ft | 491 kts | 235° |
| 2026-05-06 10:26 | 33.04400 | 44.34301 | 23002 ft | 506 kts | 234° |
| 2026-05-06 10:26 | 33.02323 | 44.30887 | 22548 ft | 506 kts | 234° |
| 2026-05-06 10:26 | 33.00597 | 44.27315 | 22117 ft | 491 kts | 248° |
| 2026-05-06 10:27 | 32.99753 | 44.23435 | 21710 ft | 479 kts | 263° |
| 2026-05-06 10:27 | 32.99812 | 44.19522 | 21308 ft | 468 kts | 279° |
| 2026-05-06 10:27 | 33.00744 | 44.15856 | 20900 ft | 460 kts | 295° |
| 2026-05-06 10:27 | 33.02475 | 44.12676 | 20483 ft | 454 kts | 311° |
| 2026-05-06 10:28 | 33.04846 | 44.10245 | 20065 ft | 449 kts | 327° |
| 2026-05-06 10:28 | 33.07681 | 44.08743 | 19710 ft | 440 kts | 344° |
| 2026-05-06 10:28 | 33.10626 | 44.08328 | 19387 ft | 426 kts | 1° |
| 2026-05-06 10:28 | 33.13476 | 44.08997 | 18977 ft | 414 kts | 20° |
| 2026-05-06 10:29 | 33.15929 | 44.10698 | 18562 ft | 406 kts | 39° |
| 2026-05-06 10:29 | 33.17722 | 44.13236 | 18144 ft | 399 kts | 59° |
| 2026-05-06 10:29 | 33.18660 | 44.16322 | 17722 ft | 394 kts | 80° |
| 2026-05-06 10:29 | 33.18628 | 44.19567 | 17297 ft | 391 kts | 101° |
| 2026-05-06 10:30 | 33.17638 | 44.22554 | 16873 ft | 387 kts | 122° |
| 2026-05-06 10:30 | 33.15827 | 44.24895 | 16448 ft | 385 kts | 143° |
| 2026-05-06 10:30 | 33.13440 | 44.26283 | 16023 ft | 382 kts | 165° |
| 2026-05-06 10:30 | 33.10810 | 44.26531 | 15596 ft | 380 kts | 186° |
| 2026-05-06 10:31 | 33.08411 | 44.25640 | 15192 ft | 345 kts | 209° |
| 2026-05-06 10:31 | 33.06716 | 44.23821 | 14798 ft | 317 kts | 236° |
| 2026-05-06 10:31 | 33.05999 | 44.21468 | 14395 ft | 295 kts | 265° |
| 2026-05-06 10:31 | 33.06374 | 44.19160 | 13987 ft | 280 kts | 297° |
| 2026-05-06 10:32 | 33.07674 | 44.17542 | 13574 ft | 269 kts | 330° |
| 2026-05-06 10:32 | 33.09443 | 44.17091 | 13158 ft | 260 kts | 5° |
| 2026-05-06 10:32 | 33.11055 | 44.17914 | 12739 ft | 252 kts | 41° |
| 2026-05-06 10:32 | 33.11918 | 44.19663 | 12318 ft | 245 kts | 79° |
| 2026-05-06 10:33 | 33.11721 | 44.21621 | 11897 ft | 239 kts | 117° |
| 2026-05-06 10:33 | 33.10580 | 44.22972 | 11474 ft | 233 kts | 156° |
| 2026-05-06 10:33 | 33.09018 | 44.23154 | 11051 ft | 228 kts | 195° |
| 2026-05-06 10:33 | 33.07760 | 44.22131 | 10631 ft | 224 kts | 234° |
| 2026-05-06 10:34 | 33.07362 | 44.20379 | 10209 ft | 223 kts | 275° |
| 2026-05-06 10:34 | 33.08025 | 44.18755 | 9785 ft | 222 kts | 316° |
| 2026-05-06 10:34 | 33.09420 | 44.18050 | 9360 ft | 222 kts | 358° |
| 2026-05-06 10:34 | 33.10857 | 44.18609 | 8936 ft | 222 kts | 39° |
| 2026-05-06 10:35 | 33.11626 | 44.20151 | 8512 ft | 220 kts | 81° |
| 2026-05-06 10:35 | 33.11345 | 44.21895 | 8086 ft | 217 kts | 123° |
| 2026-05-06 10:35 | 33.10173 | 44.22947 | 7661 ft | 214 kts | 166° |
| 2026-05-06 10:35 | 33.08740 | 44.22776 | 7237 ft | 211 kts | 208° |
| 2026-05-06 10:36 | 33.07800 | 44.21509 | 6816 ft | 210 kts | 250° |
| 2026-05-06 10:36 | 33.07842 | 44.19805 | 6392 ft | 211 kts | 293° |
| 2026-05-06 10:36 | 33.08856 | 44.18581 | 5924 ft | 214 kts | 335° |
| 2026-05-06 10:36 | 33.10358 | 44.18434 | 5138 ft | 229 kts | 14° |
| 2026-05-06 10:37 | 33.11883 | 44.19170 | 4227 ft | 243 kts | 26° |
| 2026-05-06 10:37 | 33.13325 | 44.20316 | 3314 ft | 253 kts | 40° |
| 2026-05-06 10:37 | 33.14435 | 44.21959 | 2394 ft | 256 kts | 63° |
| 2026-05-06 10:37 | 33.15057 | 44.23907 | 1509 ft | 247 kts | 73° |
| 2026-05-06 10:38 | 33.15501 | 44.25801 | 1022 ft | 224 kts | 75° |
| 2026-05-06 10:38 | 33.15863 | 44.27478 | 789 ft | 200 kts | 76° |
| 2026-05-06 10:38 | 33.16310 | 44.28955 | 652 ft | 176 kts | 60° |
| 2026-05-06 10:38 | 33.17198 | 44.29626 | 676 ft | 142 kts | 5° |
| 2026-05-06 10:39 | 33.18137 | 44.29581 | 529 ft | 127 kts | 355° |
| 2026-05-06 10:39 | 33.18982 | 44.29322 | 452 ft | 138 kts | 336° |
| 2026-05-06 10:39 | 33.19951 | 44.28729 | 474 ft | 172 kts | 328° |
| 2026-05-06 10:39 | 33.20932 | 44.28064 | 510 ft | 148 kts | 337° |
| 2026-05-06 10:40 | 33.21782 | 44.27588 | 429 ft | 124 kts | 331° |
| 2026-05-06 10:40 | 33.22572 | 44.27082 | 461 ft | 139 kts | 329° |
| 2026-05-06 10:40 | 33.23348 | 44.26540 | 398 ft | 119 kts | 329° |
| 2026-05-06 10:40 | 33.24027 | 44.26075 | 273 ft | 113 kts | 329° |
| 2026-05-06 10:41 | 33.24766 | 44.25580 | 198 ft | 124 kts | 329° |
| 2026-05-06 10:41 | 33.25465 | 44.25107 | 115 ft | 101 kts | 331° |
| 2026-05-06 10:41 | 33.25904 | 44.24816 | 119 ft | 43 kts | 330° |
| 2026-05-06 10:41 | 33.26144 | 44.24652 | 118 ft | 39 kts | 330° |
| 2026-05-06 10:42 | 33.26374 | 44.24494 | 117 ft | 37 kts | 330° |
| 2026-05-06 10:42 | 33.26594 | 44.24342 | 118 ft | 35 kts | 330° |
| 2026-05-06 10:42 | 33.26765 | 44.24148 | 119 ft | 33 kts | 307° |
| 2026-05-06 10:42 | 33.26884 | 44.23922 | 118 ft | 32 kts | 306° |
| 2026-05-06 10:43 | 33.27054 | 44.23770 | 117 ft | 31 kts | 329° |
| 2026-05-06 10:43 | 33.27240 | 44.23644 | 117 ft | 30 kts | 332° |
| 2026-05-06 10:43 | 33.27363 | 44.23506 | 117 ft | 19 kts | 277° |